createdAt,value
2018-08-28T00:01:04.245Z,100.00
2018-08-28T00:04:08.469Z,100.00
2018-08-28T00:07:12.681Z,100.00
2018-08-28T00:10:16.908Z,100.00
2018-08-28T00:13:21.162Z,100.00
2018-08-28T00:16:25.381Z,100.00
2018-08-28T00:19:29.617Z,100.00
2018-08-28T00:22:33.828Z,100.00
2018-08-28T00:25:38.066Z,100.00
2018-08-28T00:28:42.290Z,100.00
2018-08-28T00:31:46.519Z,100.00
2018-08-28T00:34:50.741Z,100.00
2018-08-28T00:37:54.945Z,100.00
2018-08-28T00:40:59.245Z,100.00
2018-08-28T00:44:03.518Z,100.00
2018-08-28T00:47:07.793Z,100.00
2018-08-28T00:50:12.048Z,100.00
2018-08-28T00:53:16.282Z,100.00
2018-08-28T00:56:20.508Z,100.00
2018-08-28T00:59:24.741Z,100.00
2018-08-28T01:02:28.969Z,100.00
2018-08-28T01:05:33.177Z,100.00
2018-08-28T01:08:37.415Z,100.00
2018-08-28T01:11:41.637Z,100.00
2018-08-28T01:14:45.896Z,100.00
2018-08-28T01:17:50.128Z,100.00
2018-08-28T01:20:54.331Z,100.00
2018-08-28T01:23:58.560Z,100.00
2018-08-28T01:27:02.818Z,100.00
2018-08-28T01:30:07.093Z,100.00
2018-08-28T01:33:11.354Z,100.00
2018-08-28T01:36:15.556Z,100.00
2018-08-28T01:39:19.765Z,100.00
2018-08-28T01:42:25.073Z,100.00
2018-08-28T01:45:29.377Z,100.00
2018-08-28T01:48:33.605Z,100.00
2018-08-28T01:51:37.812Z,100.00
2018-08-28T01:54:42.061Z,100.00
2018-08-28T01:57:46.295Z,100.00
2018-08-28T02:00:50.543Z,100.00
2018-08-28T02:03:54.777Z,100.00
2018-08-28T02:06:59.046Z,100.00
2018-08-28T02:10:03.317Z,100.00
2018-08-28T02:13:07.569Z,100.00
2018-08-28T02:16:11.782Z,100.00
2018-08-28T02:19:16.001Z,100.00
2018-08-28T02:22:20.233Z,100.00
2018-08-28T02:25:24.441Z,100.00
2018-08-28T02:28:28.681Z,100.00
2018-08-28T02:31:32.896Z,100.00
2018-08-28T02:34:37.145Z,100.00
2018-08-28T02:37:41.369Z,100.00
2018-08-28T02:40:45.589Z,100.00
2018-08-28T02:43:49.808Z,100.00
2018-08-28T02:46:54.049Z,100.00
2018-08-28T02:49:58.246Z,100.00
2018-08-28T02:53:02.496Z,100.00
2018-08-28T02:56:06.776Z,100.00
2018-08-28T02:59:11.024Z,100.00
2018-08-28T03:02:15.265Z,100.00
2018-08-28T03:05:19.513Z,100.00
2018-08-28T03:08:23.772Z,100.00
2018-08-28T03:11:28.013Z,100.00
2018-08-28T03:14:32.270Z,100.00
2018-08-28T03:17:36.501Z,100.00
2018-08-28T03:20:40.732Z,100.00
2018-08-28T03:23:44.961Z,100.00
2018-08-28T03:26:49.169Z,100.00
2018-08-28T03:29:53.406Z,100.00
2018-08-28T03:32:57.672Z,100.00
2018-08-28T03:36:01.912Z,100.00
2018-08-28T03:39:06.938Z,100.00
2018-08-28T03:42:11.185Z,100.00
2018-08-28T03:45:15.441Z,100.00
2018-08-28T03:48:19.665Z,100.00
2018-08-28T03:51:23.992Z,100.00
2018-08-28T03:54:28.290Z,100.00
2018-08-28T03:57:32.489Z,100.00
2018-08-28T04:00:36.726Z,100.00
2018-08-28T04:03:40.966Z,100.00
2018-08-28T04:06:45.196Z,100.00
2018-08-28T04:09:49.412Z,100.00
2018-08-28T04:12:53.630Z,100.00
2018-08-28T04:15:58.041Z,100.00
2018-08-28T04:19:02.284Z,100.00
2018-08-28T04:22:06.497Z,100.00
2018-08-28T04:25:10.721Z,100.00
2018-08-28T04:28:14.985Z,100.00
2018-08-28T04:31:19.208Z,100.00
2018-08-28T04:34:23.419Z,100.00
2018-08-28T04:37:27.632Z,100.00
2018-08-28T04:40:31.849Z,100.00
2018-08-28T04:43:36.102Z,100.00
2018-08-28T04:46:40.322Z,100.00
2018-08-28T04:49:44.528Z,100.00
2018-08-28T04:52:48.745Z,100.00
2018-08-28T04:55:53.011Z,100.00
2018-08-28T04:58:57.266Z,100.00
2018-08-28T05:02:01.485Z,100.00
2018-08-28T05:05:09.077Z,100.00
2018-08-28T05:08:13.277Z,100.00
2018-08-28T05:11:17.501Z,100.00
2018-08-28T05:14:21.711Z,100.00
2018-08-28T05:17:25.912Z,100.00
2018-08-28T05:20:30.134Z,100.00
2018-08-28T05:23:34.359Z,100.00
2018-08-28T05:26:38.658Z,100.00
2018-08-28T05:29:42.958Z,100.00
2018-08-28T05:32:47.097Z,100.00
2018-08-28T05:35:51.296Z,100.00
2018-08-28T05:38:55.537Z,100.00
2018-08-28T05:41:59.729Z,100.00
2018-08-28T05:45:03.933Z,100.00
2018-08-28T05:48:08.624Z,100.00
2018-08-28T05:51:12.853Z,100.00
2018-08-28T05:54:17.048Z,100.00
2018-08-28T05:57:21.297Z,100.00
2018-08-28T06:00:25.525Z,100.00
2018-08-28T06:03:29.773Z,100.00
2018-08-28T06:06:33.962Z,100.00
2018-08-28T06:09:38.219Z,100.00
2018-08-28T06:12:42.456Z,100.00
2018-08-28T06:15:46.673Z,100.00
2018-08-28T06:18:50.891Z,100.00
2018-08-28T06:21:55.086Z,100.00
2018-08-28T06:24:59.285Z,100.00
2018-08-28T06:28:03.608Z,100.00
2018-08-28T06:31:07.821Z,100.00
2018-08-28T06:34:12.052Z,100.00
2018-08-28T06:37:16.324Z,100.00
2018-08-28T06:40:20.540Z,100.00
2018-08-28T06:43:24.784Z,100.00
2018-08-28T06:46:28.992Z,100.00
2018-08-28T06:49:33.252Z,100.00
2018-08-28T06:52:37.600Z,100.00
2018-08-28T06:55:41.813Z,100.00
2018-08-28T06:58:46.021Z,100.00
2018-08-28T07:01:50.233Z,100.00
2018-08-28T07:04:54.453Z,100.00
2018-08-28T07:07:58.726Z,100.00
2018-08-28T07:11:02.924Z,100.00
2018-08-28T07:14:07.119Z,100.00
2018-08-28T07:17:11.357Z,100.00
2018-08-28T07:20:15.584Z,100.00
2018-08-28T07:23:19.826Z,100.00
2018-08-28T07:26:24.040Z,100.00
2018-08-28T07:29:28.417Z,100.00
2018-08-28T07:32:32.665Z,100.00
2018-08-28T07:35:36.889Z,100.00
2018-08-28T07:38:41.108Z,100.00
2018-08-28T07:41:45.413Z,98.44
2018-08-28T07:44:49.709Z,97.72
2018-08-28T07:47:53.854Z,98.54
2018-08-28T07:50:58.067Z,97.49
2018-08-28T07:54:02.297Z,96.50
2018-08-28T07:57:06.524Z,97.30
2018-08-28T08:00:10.737Z,96.17
2018-08-28T08:03:18.328Z,95.67
2018-08-28T08:06:22.541Z,94.49
2018-08-28T08:09:26.753Z,93.96
2018-08-28T08:12:30.957Z,93.80
2018-08-28T08:15:35.197Z,90.99
2018-08-28T08:18:39.416Z,89.27
2018-08-28T08:21:43.651Z,90.26
2018-08-28T08:24:47.874Z,89.55
2018-08-28T08:27:52.144Z,87.52
2018-08-28T08:30:56.345Z,89.16
2018-08-28T08:34:00.602Z,87.66
2018-08-28T08:37:04.890Z,87.46
2018-08-28T08:40:09.098Z,87.30
2018-08-28T08:43:13.353Z,85.10
2018-08-28T08:46:17.562Z,87.48
2018-08-28T08:49:21.797Z,84.67
2018-08-28T08:52:25.977Z,83.70
2018-08-28T08:55:30.206Z,83.66
2018-08-28T08:58:34.413Z,82.93
2018-08-28T09:01:38.729Z,80.82
2018-08-28T09:04:43.015Z,81.00
2018-08-28T09:07:47.338Z,82.51
2018-08-28T09:10:51.585Z,79.55
2018-08-28T09:13:55.853Z,81.19
2018-08-28T09:17:00.098Z,78.38
2018-08-28T09:20:04.385Z,76.99
2018-08-28T09:23:08.635Z,77.39
2018-08-28T09:26:12.853Z,78.86
2018-08-28T09:29:17.116Z,75.61
2018-08-28T09:32:21.461Z,75.95
2018-08-28T09:35:25.706Z,76.54
2018-08-28T09:38:30.139Z,75.52
2018-08-28T09:41:34.310Z,75.83
2018-08-28T09:44:38.513Z,77.78
2018-08-28T09:47:42.743Z,75.01
2018-08-28T09:50:47.077Z,78.35
2018-08-28T09:53:51.243Z,74.91
2018-08-28T09:56:55.678Z,73.12
2018-08-28T10:00:00.011Z,72.57
2018-08-28T10:03:04.244Z,74.37
2018-08-28T10:06:08.517Z,74.60
2018-08-28T10:09:17.813Z,73.87
2018-08-28T10:12:22.045Z,70.24
2018-08-28T10:15:26.319Z,70.79
2018-08-28T10:18:30.580Z,73.28
2018-08-28T10:21:34.869Z,73.43
2018-08-28T10:24:39.105Z,70.22
2018-08-28T10:27:43.346Z,72.21
2018-08-28T10:30:47.622Z,72.08
2018-08-28T10:33:51.961Z,70.88
2018-08-28T10:36:56.181Z,68.87
2018-08-28T10:40:00.493Z,69.50
2018-08-28T10:43:04.885Z,68.62
2018-08-28T10:46:09.246Z,67.70
2018-08-28T10:49:13.498Z,69.26
2018-08-28T10:52:17.753Z,68.89
2018-08-28T10:55:22.015Z,70.64
2018-08-28T10:58:26.412Z,72.04
2018-08-28T11:01:30.680Z,71.49
2018-08-28T11:04:34.978Z,72.82
2018-08-28T11:07:39.234Z,72.25
2018-08-28T11:10:43.449Z,70.10
2018-08-28T11:13:47.671Z,69.98
2018-08-28T11:16:51.913Z,72.96
2018-08-28T11:19:56.841Z,68.61
2018-08-28T11:23:01.179Z,69.96
2018-08-28T11:26:05.330Z,69.98
2018-08-28T11:29:09.562Z,70.58
2018-08-28T11:32:13.762Z,73.05
2018-08-28T11:35:17.987Z,71.74
2018-08-28T11:38:22.195Z,70.44
2018-08-28T11:41:26.397Z,69.32
2018-08-28T11:44:30.618Z,66.62
2018-08-28T11:47:34.834Z,67.46
2018-08-28T11:50:39.049Z,68.12
2018-08-28T11:53:43.261Z,68.49
2018-08-28T11:56:47.443Z,68.88
2018-08-28T11:59:51.665Z,69.25
2018-08-28T12:02:55.897Z,68.45
2018-08-28T12:06:00.122Z,69.55
2018-08-28T12:09:05.655Z,70.06
2018-08-28T12:12:09.877Z,71.38
2018-08-28T12:15:14.124Z,67.69
2018-08-28T12:18:18.325Z,65.87
2018-08-28T12:21:22.539Z,66.74
2018-08-28T12:24:26.769Z,68.70
2018-08-28T12:27:31.012Z,70.31
2018-08-28T12:30:35.245Z,67.71
2018-08-28T12:33:39.441Z,68.32
2018-08-28T12:36:43.693Z,71.87
2018-08-28T12:39:47.889Z,65.83
2018-08-28T12:42:52.113Z,67.69
2018-08-28T12:45:56.312Z,67.84
2018-08-28T12:49:00.537Z,65.97
2018-08-28T12:52:04.770Z,72.00
2018-08-28T12:55:09.088Z,67.76
2018-08-28T12:58:13.217Z,67.33
2018-08-28T13:01:17.468Z,66.87
2018-08-28T13:04:21.674Z,67.83
2018-08-28T13:07:26.076Z,69.72
2018-08-28T13:10:30.121Z,70.18
2018-08-28T13:13:34.403Z,69.06
2018-08-28T13:16:38.624Z,65.37
2018-08-28T13:19:42.853Z,66.23
2018-08-28T13:22:47.048Z,66.02
2018-08-28T13:25:51.268Z,68.01
2018-08-28T13:28:55.477Z,65.48
2018-08-28T13:31:59.706Z,65.70
2018-08-28T13:35:03.929Z,66.93
2018-08-28T13:38:08.173Z,64.72
2018-08-28T13:41:12.409Z,66.26
2018-08-28T13:44:16.600Z,66.93
2018-08-28T13:47:20.838Z,67.89
2018-08-28T13:50:25.053Z,66.24
2018-08-28T13:53:29.263Z,68.10
2018-08-28T13:56:33.505Z,69.42
2018-08-28T13:59:37.745Z,70.24
2018-08-28T14:02:41.982Z,67.59
2018-08-28T14:05:46.231Z,67.60
2018-08-28T14:08:50.438Z,66.97
2018-08-28T14:11:54.634Z,67.15
2018-08-28T14:14:58.956Z,69.46
2018-08-28T14:18:03.057Z,69.68
2018-08-28T14:21:07.284Z,69.16
2018-08-28T14:24:11.554Z,69.24
2018-08-28T14:27:15.754Z,68.84
2018-08-28T14:30:19.953Z,71.09
2018-08-28T14:33:24.313Z,70.58
2018-08-28T14:36:28.615Z,71.03
2018-08-28T14:39:32.870Z,71.79
2018-08-28T14:42:37.123Z,71.93
2018-08-28T14:45:41.513Z,71.61
2018-08-28T14:48:45.746Z,72.61
2018-08-28T14:51:49.961Z,70.58
2018-08-28T14:54:54.166Z,72.69
2018-08-28T14:57:58.397Z,73.88
2018-08-28T15:01:02.669Z,71.76
2018-08-28T15:04:06.903Z,71.96
2018-08-28T15:07:11.165Z,75.68
2018-08-28T15:10:15.325Z,74.25
2018-08-28T15:13:19.521Z,74.36
2018-08-28T15:16:23.752Z,73.76
2018-08-28T15:19:27.959Z,74.33
2018-08-28T15:22:32.333Z,75.33
2018-08-28T15:25:36.521Z,76.29
2018-08-28T15:28:40.708Z,76.77
2018-08-28T15:31:44.916Z,76.22
2018-08-28T15:34:49.113Z,77.06
2018-08-28T15:37:53.302Z,76.99
2018-08-28T15:40:57.717Z,76.68
2018-08-28T15:44:01.969Z,76.17
2018-08-28T15:47:06.562Z,77.05
2018-08-28T15:50:10.782Z,75.94
2018-08-28T15:53:14.996Z,75.95
2018-08-28T15:56:19.210Z,76.88
2018-08-28T15:59:23.433Z,76.56
2018-08-28T16:02:27.653Z,77.27
2018-08-28T16:05:31.852Z,77.33
2018-08-28T16:08:36.091Z,77.10
2018-08-28T16:11:40.290Z,78.16
2018-08-28T16:14:44.498Z,77.16
2018-08-28T16:17:48.728Z,77.02
2018-08-28T16:20:52.920Z,77.48
2018-08-28T16:23:57.158Z,78.00
2018-08-28T16:27:01.350Z,77.96
2018-08-28T16:30:05.788Z,77.93
2018-08-28T16:33:10.025Z,78.19
2018-08-28T16:36:14.279Z,77.34
2018-08-28T16:39:18.517Z,78.82
2018-08-28T16:42:22.726Z,79.23
2018-08-28T16:45:26.937Z,80.03
2018-08-28T16:48:31.256Z,79.42
2018-08-28T16:51:35.399Z,79.92
2018-08-28T16:54:39.607Z,78.81
2018-08-28T16:57:43.777Z,79.37
2018-08-28T17:00:47.997Z,79.34
2018-08-28T17:03:52.217Z,78.90
2018-08-28T17:06:56.413Z,79.17
2018-08-28T17:10:00.620Z,78.23
2018-08-28T17:13:04.863Z,77.97
2018-08-28T17:16:09.094Z,77.99
2018-08-28T17:19:13.327Z,79.73
2018-08-28T17:22:17.564Z,79.71
2018-08-28T17:25:21.965Z,79.87
2018-08-28T17:28:26.233Z,80.24
2018-08-28T17:31:30.416Z,80.51
2018-08-28T17:34:34.663Z,80.94
2018-08-28T17:37:38.861Z,81.87
2018-08-28T17:40:43.045Z,82.58
2018-08-28T17:43:47.276Z,83.21
2018-08-28T17:46:51.458Z,83.60
2018-08-28T17:49:55.688Z,83.73
2018-08-28T17:52:59.971Z,83.95
2018-08-28T17:56:04.216Z,84.48
2018-08-28T17:59:08.410Z,84.45
2018-08-28T18:02:12.625Z,84.73
2018-08-28T18:05:16.830Z,84.42
2018-08-28T18:08:21.033Z,84.85
2018-08-28T18:11:25.220Z,85.13
2018-08-28T18:14:29.429Z,85.30
2018-08-28T18:17:33.654Z,84.74
2018-08-28T18:20:37.831Z,85.05
2018-08-28T18:23:42.085Z,85.21
2018-08-28T18:26:46.290Z,84.66
2018-08-28T18:29:50.530Z,85.05
2018-08-28T18:32:54.729Z,85.57
2018-08-28T18:35:59.002Z,86.33
2018-08-28T18:39:03.217Z,86.26
2018-08-28T18:42:07.490Z,86.30
2018-08-28T18:45:11.697Z,86.69
2018-08-28T18:48:15.923Z,86.64
2018-08-28T18:51:20.113Z,87.40
2018-08-28T18:54:24.315Z,87.18
2018-08-28T18:57:28.508Z,87.88
2018-08-28T19:00:32.758Z,88.15
2018-08-28T19:03:36.954Z,88.80
2018-08-28T19:06:41.190Z,89.23
2018-08-28T19:09:45.376Z,89.58
2018-08-28T19:12:49.596Z,89.88
2018-08-28T19:15:54.049Z,89.06
2018-08-28T19:18:58.268Z,89.77
2018-08-28T19:22:02.491Z,89.49
2018-08-28T19:25:06.717Z,89.65
2018-08-28T19:28:10.961Z,90.21
2018-08-28T19:31:15.173Z,90.17
2018-08-28T19:34:19.399Z,90.97
2018-08-28T19:37:23.965Z,90.63
2018-08-28T19:40:28.181Z,90.85
2018-08-28T19:43:32.419Z,91.10
2018-08-28T19:46:36.638Z,91.96
2018-08-28T19:49:40.850Z,91.92
2018-08-28T19:52:45.040Z,92.05
2018-08-28T19:55:49.264Z,91.94
2018-08-28T19:58:53.458Z,92.56
2018-08-28T20:01:57.669Z,93.47
2018-08-28T20:05:01.914Z,93.50
2018-08-28T20:08:06.221Z,93.19
2018-08-28T20:11:10.437Z,93.57
2018-08-28T20:14:14.620Z,94.08
2018-08-28T20:17:18.852Z,94.04
2018-08-28T20:20:23.054Z,95.47
2018-08-28T20:23:27.278Z,95.38
2018-08-28T20:26:31.521Z,95.53
2018-08-28T20:29:35.755Z,95.49
2018-08-28T20:32:39.950Z,95.86
2018-08-28T20:35:44.152Z,95.77
2018-08-28T20:38:48.328Z,95.93
2018-08-28T20:41:52.609Z,95.23
2018-08-28T20:44:56.779Z,96.17
2018-08-28T20:48:00.991Z,96.30
2018-08-28T20:51:05.541Z,96.74
2018-08-28T20:54:09.829Z,95.83
2018-08-28T20:57:14.012Z,96.00
2018-08-28T21:00:18.246Z,97.07
2018-08-28T21:03:22.493Z,97.02
2018-08-28T21:06:26.771Z,97.26
2018-08-28T21:09:30.953Z,97.21
2018-08-28T21:12:35.223Z,97.19
2018-08-28T21:15:39.377Z,97.08
2018-08-28T21:18:43.601Z,97.03
2018-08-28T21:21:47.809Z,97.31
2018-08-28T21:24:52.005Z,98.05
2018-08-28T21:27:56.240Z,97.40
2018-08-28T21:31:00.436Z,97.34
2018-08-28T21:34:04.623Z,97.50
2018-08-28T21:37:08.817Z,97.77
2018-08-28T21:40:13.062Z,97.81
2018-08-28T21:43:17.280Z,98.17
2018-08-28T21:46:21.505Z,97.67
2018-08-28T21:49:25.701Z,98.32
2018-08-28T21:52:29.926Z,98.39
2018-08-28T21:55:34.121Z,98.56
2018-08-28T21:58:38.360Z,99.09
2018-08-28T22:01:42.577Z,99.86
2018-08-28T22:04:46.777Z,99.96
2018-08-28T22:07:55.108Z,100.00
2018-08-28T22:10:59.306Z,100.00
2018-08-28T22:14:03.588Z,100.00
2018-08-28T22:17:07.826Z,100.00
2018-08-28T22:20:12.045Z,100.00
2018-08-28T22:23:16.254Z,100.00
2018-08-28T22:26:20.474Z,100.00
2018-08-28T22:29:24.676Z,100.00
2018-08-28T22:32:28.897Z,100.00
2018-08-28T22:35:33.121Z,100.00
2018-08-28T22:38:37.300Z,100.00
2018-08-28T22:41:41.533Z,100.00
2018-08-28T22:44:45.730Z,100.00
2018-08-28T22:47:49.941Z,100.00
2018-08-28T22:50:54.137Z,100.00
2018-08-28T22:53:58.418Z,100.00
2018-08-28T22:57:02.613Z,100.00
2018-08-28T23:00:07.473Z,100.00
2018-08-28T23:03:11.652Z,100.00
2018-08-28T23:06:15.857Z,100.00
2018-08-28T23:09:20.057Z,100.00
2018-08-28T23:12:24.308Z,100.00
2018-08-28T23:15:28.513Z,100.00
2018-08-28T23:18:32.765Z,100.00
2018-08-28T23:21:36.950Z,99.86
2018-08-28T23:24:41.141Z,99.83
2018-08-28T23:27:45.350Z,100.00
2018-08-28T23:30:49.588Z,100.00
2018-08-28T23:33:53.770Z,100.00
2018-08-28T23:36:57.968Z,99.79
2018-08-28T23:40:02.166Z,100.00
2018-08-28T23:43:07.424Z,100.00
2018-08-28T23:46:11.640Z,100.00
2018-08-28T23:49:15.829Z,100.00
2018-08-28T23:52:20.037Z,100.00
2018-08-28T23:55:24.325Z,100.00
2018-08-28T23:58:28.541Z,100.00
